Time;durP1;ratioP1;P1;durP2;ratioP2;P2;SDS_P1;SDS_P2;PMS_P1;PMS_P2;Temp;Humidity;BMP_temperature;BMP_pressure;BME280_temperature;BME280_humidity;BME280_pressure;Samples;Min_cycle;Max_cycle;Signal;HPM_P1;HPM_P2
2023/12/31 00:04:24;;;;;;;4.63;1.90;;;;;;;;;;10544142;28;20046;-74
2023/12/31 00:09:28;;;;;;;2.30;1.45;;;;;;;;;;10538613;27;20047;-74
2023/12/31 00:14:31;;;;;;;2.83;1.48;;;;;;;;;;10540962;28;20032;-75
2023/12/31 00:19:33;;;;;;;4.85;2.30;;;;;;;;;;10556883;28;20041;-74
2023/12/31 00:24:37;;;;;;;2.28;1.05;;;;;;;;;;10544895;28;20046;-75
2023/12/31 00:29:40;;;;;;;4.60;2.30;;;;;;;;;;10543192;28;20058;-74
2023/12/31 00:34:42;;;;;;;5.70;2.10;;;;;;;;;;10543779;28;20135;-75
2023/12/31 00:39:46;;;;;;;5.20;2.38;;;;;;;;;;10542745;28;20035;-74
2023/12/31 00:44:49;;;;;;;4.40;1.95;;;;;;;;;;10541428;28;20125;-74
2023/12/31 00:49:52;;;;;;;8.13;2.58;;;;;;;;;;10554970;28;20598;-75
2023/12/31 00:54:56;;;;;;;5.85;2.42;;;;;;;;;;10548247;27;20036;-74
2023/12/31 00:59:58;;;;;;;2.17;0.98;;;;;;;;;;10556168;28;20115;-75
2023/12/31 01:05:01;;;;;;;4.30;1.77;;;;;;;;;;10554669;27;20174;-75
2023/12/31 01:10:06;;;;;;;5.82;2.10;;;;;;;;;;10553439;27;22027;-76
2023/12/31 01:15:10;;;;;;;3.35;1.42;;;;;;;;;;10548352;28;20051;-75
2023/12/31 01:20:14;;;;;;;3.20;1.40;;;;;;;;;;10551193;27;20098;-74
2023/12/31 01:25:17;;;;;;;1.02;0.88;;;;;;;;;;10545882;27;20151;-73
2023/12/31 01:30:20;;;;;;;0.15;0.15;;;;;;;;;;10556774;28;20221;-75
2023/12/31 01:35:23;;;;;;;0.40;0.35;;;;;;;;;;10549567;27;20067;-74
2023/12/31 01:40:27;;;;;;;4.95;1.65;;;;;;;;;;10550107;28;20101;-75
2023/12/31 01:45:29;;;;;;;2.55;1.35;;;;;;;;;;10549488;27;20040;-75
2023/12/31 01:50:32;;;;;;;1.75;1.15;;;;;;;;;;10556480;27;20051;-74
2023/12/31 01:55:36;;;;;;;3.45;1.35;;;;;;;;;;10539520;27;20078;-74
2023/12/31 02:00:39;;;;;;;4.63;1.70;;;;;;;;;;10546997;27;20035;-74
2023/12/31 02:05:41;;;;;;;2.70;0.98;;;;;;;;;;10548830;27;20039;-74
2023/12/31 02:10:45;;;;;;;1.20;0.68;;;;;;;;;;10545115;27;20050;-74
2023/12/31 02:15:48;;;;;;;1.58;0.73;;;;;;;;;;10542225;27;20036;-75
2023/12/31 02:20:51;;;;;;;0.68;0.55;;;;;;;;;;10551280;27;20511;-74
2023/12/31 02:26:01;;;;;;;3.33;1.67;;;;;;;;;;10548117;27;20557;-74
2023/12/31 02:31:04;;;;;;;3.20;1.20;;;;;;;;;;10541127;27;20080;-75
2023/12/31 02:36:07;;;;;;;3.47;1.40;;;;;;;;;;10547709;28;20542;-75
2023/12/31 02:41:11;;;;;;;2.95;1.40;;;;;;;;;;10542837;28;20039;-74
2023/12/31 02:46:14;;;;;;;1.10;0.43;;;;;;;;;;10548771;28;20036;-74
2023/12/31 02:51:16;;;;;;;2.85;1.40;;;;;;;;;;10541818;28;20131;-74
2023/12/31 02:56:21;;;;;;;2.25;0.98;;;;;;;;;;10544564;28;20550;-74
2023/12/31 03:01:24;;;;;;;1.00;0.73;;;;;;;;;;10542915;28;20132;-76
2023/12/31 03:06:28;;;;;;;1.05;0.80;;;;;;;;;;10553384;28;20039;-75
2023/12/31 03:11:32;;;;;;;0.10;0.00;;;;;;;;;;10541619;28;20102;-73
2023/12/31 03:16:35;;;;;;;2.10;1.20;;;;;;;;;;10541726;28;20050;-74
2023/12/31 03:21:37;;;;;;;2.88;1.55;;;;;;;;;;10537767;28;20620;-74
2023/12/31 03:26:43;;;;;;;1.73;1.15;;;;;;;;;;10540033;28;20047;-73
2023/12/31 03:31:45;;;;;;;1.02;0.85;;;;;;;;;;10546383;28;20052;-75
2023/12/31 03:36:48;;;;;;;1.45;0.47;;;;;;;;;;10538917;28;20492;-74
2023/12/31 03:41:52;;;;;;;1.60;0.95;;;;;;;;;;10545828;28;20134;-75
2023/12/31 03:46:54;;;;;;;4.10;1.48;;;;;;;;;;10539577;28;20481;-75
2023/12/31 03:51:57;;;;;;;1.42;0.80;;;;;;;;;;10544019;28;20119;-74
2023/12/31 03:57:01;;;;;;;0.70;0.45;;;;;;;;;;10542715;28;20032;-74
2023/12/31 04:02:04;;;;;;;1.85;1.40;;;;;;;;;;10537771;28;20044;-74
2023/12/31 04:07:07;;;;;;;2.03;1.05;;;;;;;;;;10542389;28;20086;-74
2023/12/31 04:12:11;;;;;;;1.27;1.00;;;;;;;;;;10543392;28;20175;-74
2023/12/31 04:17:13;;;;;;;3.85;1.10;;;;;;;;;;10541554;28;20039;-74
2023/12/31 04:22:16;;;;;;;1.15;0.55;;;;;;;;;;10542292;28;20367;-74
2023/12/31 04:27:20;;;;;;;1.83;0.55;;;;;;;;;;10543998;28;20499;-73
2023/12/31 04:32:25;;;;;;;1.27;0.70;;;;;;;;;;10545389;28;20108;-73
2023/12/31 04:37:27;;;;;;;1.80;1.00;;;;;;;;;;10540254;28;20074;-74
2023/12/31 04:42:32;;;;;;;0.85;0.38;;;;;;;;;;10545396;28;20050;-74
2023/12/31 04:47:35;;;;;;;0.63;0.63;;;;;;;;;;10548232;28;20032;-75
2023/12/31 04:52:38;;;;;;;0.47;0.43;;;;;;;;;;10543223;28;20047;-74
2023/12/31 04:57:42;;;;;;;0.60;0.32;;;;;;;;;;10537830;28;20032;-74
2023/12/31 05:02:45;;;;;;;0.77;0.40;;;;;;;;;;10539037;28;20054;-73
2023/12/31 05:07:48;;;;;;;0.40;0.28;;;;;;;;;;10538450;28;20071;-74
2023/12/31 05:12:52;;;;;;;0.85;0.57;;;;;;;;;;10538550;28;20040;-74
2023/12/31 05:17:55;;;;;;;0.70;0.40;;;;;;;;;;10542483;28;20036;-74
2023/12/31 05:22:58;;;;;;;0.47;0.45;;;;;;;;;;10543547;28;20067;-74
2023/12/31 05:28:02;;;;;;;0.45;0.40;;;;;;;;;;10546597;28;20536;-75
2023/12/31 05:33:04;;;;;;;1.30;0.52;;;;;;;;;;10549256;28;20044;-75
2023/12/31 05:38:07;;;;;;;0.22;0.22;;;;;;;;;;10530791;28;20221;-74
2023/12/31 05:43:12;;;;;;;1.05;0.40;;;;;;;;;;10546190;28;20040;-75
2023/12/31 05:48:15;;;;;;;1.95;0.45;;;;;;;;;;10543899;28;20432;-75
2023/12/31 05:53:17;;;;;;;0.40;0.33;;;;;;;;;;10552052;28;20126;-74
2023/12/31 05:58:22;;;;;;;0.95;0.73;;;;;;;;;;10546127;28;20043;-74
2023/12/31 06:03:25;;;;;;;0.95;0.73;;;;;;;;;;10551856;28;20050;-76
2023/12/31 06:08:27;;;;;;;0.03;0.00;;;;;;;;;;10548588;28;20105;-75
2023/12/31 06:13:31;;;;;;;0.80;0.40;;;;;;;;;;10544763;28;20036;-74
2023/12/31 06:18:34;;;;;;;0.55;0.38;;;;;;;;;;10554354;28;20102;-75
2023/12/31 06:23:36;;;;;;;0.30;0.22;;;;;;;;;;10552587;27;20621;-74
2023/12/31 06:28:40;;;;;;;0.70;0.70;;;;;;;;;;10537167;28;20089;-74
2023/12/31 06:33:43;;;;;;;1.33;0.65;;;;;;;;;;10543455;28;20039;-75
2023/12/31 06:38:46;;;;;;;0.88;0.60;;;;;;;;;;10538901;28;20043;-74
2023/12/31 06:43:50;;;;;;;0.52;0.52;;;;;;;;;;10535391;28;20050;-74
2023/12/31 06:48:53;;;;;;;2.03;0.98;;;;;;;;;;10538893;27;20722;-74
2023/12/31 06:53:57;;;;;;;0.10;0.10;;;;;;;;;;10545680;27;20032;-73
2023/12/31 06:59:01;;;;;;;0.60;0.43;;;;;;;;;;10538652;27;20480;-74
2023/12/31 07:04:03;;;;;;;1.95;0.90;;;;;;;;;;10537883;28;20086;-74
2023/12/31 07:09:06;;;;;;;1.85;0.80;;;;;;;;;;10549017;27;20043;-74
2023/12/31 07:14:10;;;;;;;2.05;0.68;;;;;;;;;;10532836;28;20148;-74
2023/12/31 07:19:12;;;;;;;0.73;0.50;;;;;;;;;;10542931;27;20051;-74
2023/12/31 07:24:15;;;;;;;0.80;0.57;;;;;;;;;;10546230;28;20521;-74
2023/12/31 07:29:19;;;;;;;1.10;0.73;;;;;;;;;;10540939;27;20047;-75
2023/12/31 07:34:22;;;;;;;1.23;0.60;;;;;;;;;;10540032;27;20072;-75
2023/12/31 07:39:26;;;;;;;0.98;0.60;;;;;;;;;;10532748;28;20497;-75
2023/12/31 07:44:30;;;;;;;0.30;0.30;;;;;;;;;;10538193;28;20053;-75
2023/12/31 07:49:33;;;;;;;;;;;;;;;;;;10540224;28;20055;-75
2023/12/31 07:54:36;;;;;;;0.40;0.40;;;;;;;;;;10541713;28;19932;-75
2023/12/31 07:59:40;;;;;;;0.63;0.63;;;;;;;;;;10540766;27;20062;-75
2023/12/31 08:04:42;;;;;;;3.35;1.90;;;;;;;;;;10539944;28;20309;-75
2023/12/31 08:09:45;;;;;;;2.00;1.20;;;;;;;;;;10543014;28;20035;-74
2023/12/31 08:14:49;;;;;;;1.20;0.25;;;;;;;;;;10535272;28;20858;-74
2023/12/31 08:19:52;;;;;;;0.10;0.10;;;;;;;;;;10542432;28;20039;-73
2023/12/31 08:24:55;;;;;;;1.83;0.77;;;;;;;;;;10542431;28;20128;-74
2023/12/31 08:29:59;;;;;;;0.80;0.70;;;;;;;;;;10536478;28;20044;-76
2023/12/31 08:35:02;;;;;;;0.70;0.43;;;;;;;;;;10536630;28;20042;-75
2023/12/31 08:40:05;;;;;;;2.88;1.08;;;;;;;;;;10548119;28;20122;-74
2023/12/31 08:45:11;;;;;;;0.60;0.60;;;;;;;;;;10541251;28;20105;-75
2023/12/31 08:50:15;;;;;;;1.48;0.73;;;;;;;;;;10540475;28;20150;-75
2023/12/31 08:55:17;;;;;;;1.13;0.93;;;;;;;;;;10521480;28;20437;-75
2023/12/31 09:00:22;;;;;;;1.52;0.95;;;;;;;;;;10539564;28;20489;-73
2023/12/31 09:05:24;;;;;;;2.90;1.20;;;;;;;;;;10542791;28;20123;-76
2023/12/31 09:10:27;;;;;;;1.70;1.00;;;;;;;;;;10533751;28;20066;-75
2023/12/31 09:15:31;;;;;;;1.33;1.10;;;;;;;;;;10543815;28;20381;-76
2023/12/31 09:20:34;;;;;;;1.20;1.10;;;;;;;;;;10542050;28;20131;-76
2023/12/31 09:25:37;;;;;;;0.50;0.50;;;;;;;;;;10547162;27;20097;-76
2023/12/31 09:30:41;;;;;;;0.80;0.80;;;;;;;;;;10552106;27;20051;-74
2023/12/31 09:35:43;;;;;;;0.88;0.60;;;;;;;;;;10528831;28;20036;-74
2023/12/31 09:40:46;;;;;;;1.42;0.50;;;;;;;;;;10554778;27;20040;-74
2023/12/31 09:45:51;;;;;;;2.33;1.30;;;;;;;;;;10544331;27;20389;-75
2023/12/31 09:50:53;;;;;;;2.95;1.25;;;;;;;;;;10541819;27;20488;-76
2023/12/31 09:55:56;;;;;;;2.10;0.82;;;;;;;;;;10547976;27;20762;-76
2023/12/31 10:01:00;;;;;;;1.50;1.00;;;;;;;;;;10545393;27;20027;-76
2023/12/31 10:06:03;;;;;;;;;;;;;;;;;;10547963;28;20056;-74
2023/12/31 10:11:07;;;;;;;0.50;0.50;;;;;;;;;;10548661;27;19943;-76
2023/12/31 10:16:10;;;;;;;;;;;;;;;;;;10543185;28;20430;-74
2023/12/31 10:21:15;;;;;;;4.32;1.10;;;;;;;;;;10552079;28;19919;-74
2023/12/31 10:26:18;;;;;;;2.97;1.30;;;;;;;;;;10548270;27;20061;-74
2023/12/31 10:31:21;;;;;;;2.85;1.50;;;;;;;;;;10553209;28;20043;-75
2023/12/31 10:36:25;;;;;;;4.18;1.10;;;;;;;;;;10545539;28;20052;-76
2023/12/31 10:41:28;;;;;;;2.30;1.13;;;;;;;;;;10546158;27;20055;-75
2023/12/31 10:46:31;;;;;;;2.92;1.38;;;;;;;;;;10549120;27;20102;-74
2023/12/31 10:51:35;;;;;;;2.22;1.42;;;;;;;;;;10549297;27;21917;-75
2023/12/31 10:56:38;;;;;;;6.28;2.10;;;;;;;;;;10547414;27;20365;-75
2023/12/31 11:01:41;;;;;;;3.92;1.85;;;;;;;;;;10542989;27;20130;-75
2023/12/31 11:06:47;;;;;;;3.60;1.75;;;;;;;;;;10549416;28;20047;-75
2023/12/31 11:11:50;;;;;;;5.18;1.90;;;;;;;;;;10543114;28;20196;-75
2023/12/31 11:16:56;;;;;;;4.95;2.10;;;;;;;;;;10548595;28;20105;-75
2023/12/31 11:22:08;;;;;;;3.00;1.70;;;;;;;;;;10539058;28;20138;-76
2023/12/31 11:27:15;;;;;;;3.72;1.92;;;;;;;;;;10535687;27;20043;-75
2023/12/31 11:32:18;;;;;;;4.55;2.15;;;;;;;;;;10551439;27;20032;-75
2023/12/31 11:37:23;;;;;;;7.43;2.05;;;;;;;;;;10544064;27;21653;-75
2023/12/31 11:42:26;;;;;;;5.28;1.98;;;;;;;;;;10545323;28;20040;-75
2023/12/31 11:47:29;;;;;;;6.03;2.20;;;;;;;;;;10544380;28;20135;-74
2023/12/31 11:52:38;;;;;;;4.93;2.15;;;;;;;;;;10542148;28;20043;-75
2023/12/31 11:57:44;;;;;;;3.50;2.00;;;;;;;;;;10549899;28;20036;-76
2023/12/31 12:02:50;;;;;;;12.10;2.75;;;;;;;;;;10540201;28;20169;-75
2023/12/31 12:07:55;;;;;;;5.28;1.83;;;;;;;;;;10547282;28;20183;-74
2023/12/31 12:13:00;;;;;;;7.72;2.08;;;;;;;;;;10532970;28;20031;-74
2023/12/31 12:18:12;;;;;;;3.53;1.80;;;;;;;;;;10543353;27;20588;-75
2023/12/31 12:23:20;;;;;;;3.63;1.90;;;;;;;;;;10539404;28;20066;-75
2023/12/31 12:28:23;;;;;;;3.35;1.80;;;;;;;;;;10541082;28;20093;-74
2023/12/31 12:33:27;;;;;;;1.60;0.90;;;;;;;;;;10547240;28;20038;-76
2023/12/31 12:38:30;;;;;;;;;;;;;;;;;;10550905;28;20036;-76
2023/12/31 12:43:34;;;;;;;4.50;2.03;;;;;;;;;;10563892;27;19950;-76
2023/12/31 12:48:38;;;;;;;;;;;;;;;;;;10551728;27;20035;-77
2023/12/31 12:53:40;;;;;;;4.13;1.70;;;;;;;;;;10556737;28;19949;-75
2023/12/31 12:58:45;;;;;;;3.03;1.15;;;;;;;;;;10556252;28;20043;-74
2023/12/31 13:03:48;;;;;;;1.58;0.95;;;;;;;;;;10562745;27;20109;-74
2023/12/31 13:08:50;;;;;;;3.40;1.27;;;;;;;;;;10563395;28;20063;-75
2023/12/31 13:13:55;;;;;;;2.47;1.15;;;;;;;;;;10553823;27;20110;-75
2023/12/31 13:18:57;;;;;;;3.67;1.25;;;;;;;;;;10549134;28;20729;-77
2023/12/31 13:24:00;;;;;;;2.42;1.13;;;;;;;;;;10549168;28;20042;-76
2023/12/31 13:29:04;;;;;;;2.38;1.38;;;;;;;;;;10554590;27;20136;-76
2023/12/31 13:34:09;;;;;;;3.17;1.42;;;;;;;;;;10552376;28;20108;-76
2023/12/31 13:39:11;;;;;;;2.38;1.23;;;;;;;;;;10559130;27;20043;-75
2023/12/31 13:44:15;;;;;;;0.63;0.60;;;;;;;;;;10548965;28;20217;-75
2023/12/31 13:49:18;;;;;;;2.63;1.10;;;;;;;;;;10552460;27;20071;-75
2023/12/31 13:54:22;;;;;;;1.73;1.30;;;;;;;;;;10550153;28;20098;-76
2023/12/31 13:59:26;;;;;;;1.77;1.17;;;;;;;;;;10551078;27;20121;-76
2023/12/31 14:04:28;;;;;;;;;;;;;;;;;;10557291;27;20552;-76
2023/12/31 14:09:31;;;;;;;2.17;1.00;;;;;;;;;;10553190;28;20871;-76
2023/12/31 14:14:35;;;;;;;3.13;1.30;;;;;;;;;;10536025;28;20211;-75
2023/12/31 14:19:38;;;;;;;2.88;1.40;;;;;;;;;;10554652;28;20036;-75
2023/12/31 14:24:41;;;;;;;3.03;1.90;;;;;;;;;;10537800;28;20042;-75
2023/12/31 14:29:46;;;;;;;4.43;1.60;;;;;;;;;;10543832;27;20042;-76
2023/12/31 14:34:49;;;;;;;4.30;1.90;;;;;;;;;;10555145;27;20063;-76
2023/12/31 14:39:52;;;;;;;5.68;2.20;;;;;;;;;;10550625;28;20052;-75
2023/12/31 14:44:56;;;;;;;3.75;2.00;;;;;;;;;;10548227;27;20135;-74
2023/12/31 14:49:58;;;;;;;4.45;2.03;;;;;;;;;;10554942;27;20100;-75
2023/12/31 14:55:03;;;;;;;6.43;2.33;;;;;;;;;;10552287;27;20043;-75
2023/12/31 15:00:11;;;;;;;4.20;1.92;;;;;;;;;;10549750;27;20044;-75
2023/12/31 15:05:14;;;;;;;5.82;2.10;;;;;;;;;;10548127;28;20422;-74
2023/12/31 15:10:20;;;;;;;3.65;1.70;;;;;;;;;;10545983;28;20044;-75
2023/12/31 15:15:25;;;;;;;5.03;1.90;;;;;;;;;;10553749;27;20071;-74
2023/12/31 15:20:28;;;;;;;2.00;1.45;;;;;;;;;;10553504;28;20040;-75
2023/12/31 15:25:31;;;;;;;3.50;1.58;;;;;;;;;;10550637;28;20548;-77
2023/12/31 15:30:35;;;;;;;3.00;1.38;;;;;;;;;;10545072;27;20055;-77
2023/12/31 15:35:38;;;;;;;6.75;2.63;;;;;;;;;;10546716;27;20040;-76
2023/12/31 15:40:41;;;;;;;5.75;2.60;;;;;;;;;;10542386;28;20044;-76
2023/12/31 15:45:45;;;;;;;4.50;2.20;;;;;;;;;;10545920;27;20085;-75
2023/12/31 15:50:48;;;;;;;;;;;;;;;;;;10547137;27;20413;-75
2023/12/31 15:55:52;;;;;;;4.60;1.98;;;;;;;;;;10546069;27;20334;-75
2023/12/31 16:00:56;;;;;;;4.45;1.98;;;;;;;;;;10536134;27;20588;-75
2023/12/31 16:05:59;;;;;;;5.82;2.35;;;;;;;;;;10547932;28;20043;-74
2023/12/31 16:11:01;;;;;;;6.72;2.50;;;;;;;;;;10547382;28;20036;-75
2023/12/31 16:16:06;;;;;;;7.40;2.25;;;;;;;;;;10544275;28;20053;-73
2023/12/31 16:21:11;;;;;;;5.00;2.20;;;;;;;;;;10545013;28;20436;-76
2023/12/31 16:26:14;;;;;;;5.03;2.90;;;;;;;;;;10526503;28;20038;-75
2023/12/31 16:31:18;;;;;;;5.43;2.90;;;;;;;;;;10541840;28;20067;-76
2023/12/31 16:36:21;;;;;;;8.70;3.92;;;;;;;;;;10541873;28;20357;-76
2023/12/31 16:41:24;;;;;;;7.72;3.38;;;;;;;;;;10551395;28;20035;-76
2023/12/31 16:46:28;;;;;;;6.88;3.05;;;;;;;;;;10548674;28;20401;-75
2023/12/31 16:51:31;;;;;;;;;;;;;;;;;;10552261;28;20035;-75
2023/12/31 16:56:35;;;;;;;12.07;4.93;;;;;;;;;;10546134;28;19920;-76
2023/12/31 17:01:39;;;;;;;6.25;2.78;;;;;;;;;;10526428;28;20063;-76
2023/12/31 17:06:41;;;;;;;;;;;;;;;;;;10529175;28;20404;-76
2023/12/31 17:11:45;;;;;;;1.45;1.30;;;;;;;;;;10544600;28;19926;-76
2023/12/31 17:16:49;;;;;;;;;;;;;;;;;;10546705;28;20164;-75
2023/12/31 17:21:53;;;;;;;7.90;3.60;;;;;;;;;;10554458;28;19945;-76
2023/12/31 17:26:57;;;;;;;;;;;;;;;;;;10547685;27;20075;-76
2023/12/31 17:32:00;;;;;;;1.20;0.73;;;;;;;;;;10550353;28;20032;-76
2023/12/31 17:37:05;;;;;;;3.30;1.85;;;;;;;;;;10560469;27;20105;-75
2023/12/31 17:42:07;;;;;;;2.80;1.30;;;;;;;;;;10548292;27;20273;-75
2023/12/31 17:47:10;;;;;;;1.65;0.70;;;;;;;;;;10551833;27;20076;-74
2023/12/31 17:52:15;;;;;;;2.58;1.08;;;;;;;;;;10555971;27;20513;-76
2023/12/31 17:57:17;;;;;;;0.52;0.30;;;;;;;;;;10551665;27;20111;-76
2023/12/31 18:02:21;;;;;;;0.95;0.60;;;;;;;;;;10551841;28;20134;-76
2023/12/31 18:07:25;;;;;;;1.38;0.73;;;;;;;;;;10545717;27;20042;-76
2023/12/31 18:12:28;;;;;;;2.50;1.05;;;;;;;;;;10548378;28;20040;-75
2023/12/31 18:17:31;;;;;;;2.35;1.10;;;;;;;;;;10554139;27;20039;-76
2023/12/31 18:22:37;;;;;;;3.13;1.30;;;;;;;;;;10551735;28;20047;-75
2023/12/31 18:27:40;;;;;;;1.73;0.98;;;;;;;;;;10555705;28;20038;-76
2023/12/31 18:32:43;;;;;;;3.90;1.48;;;;;;;;;;10547891;28;20048;-75
2023/12/31 18:37:47;;;;;;;2.05;1.00;;;;;;;;;;10547710;28;20608;-75
2023/12/31 18:42:50;;;;;;;5.38;2.75;;;;;;;;;;10534674;27;20199;-75
2023/12/31 18:47:52;;;;;;;2.55;1.23;;;;;;;;;;10550706;28;20134;-75
2023/12/31 18:52:57;;;;;;;4.22;1.17;;;;;;;;;;10550372;27;20032;-75
2023/12/31 18:57:59;;;;;;;;;;;;;;;;;;10549583;28;20080;-74
2023/12/31 19:03:03;;;;;;;3.85;2.00;;;;;;;;;;10548875;28;20408;-73
2023/12/31 19:08:07;;;;;;;6.13;1.98;;;;;;;;;;10549601;27;20470;-74
2023/12/31 19:13:11;;;;;;;4.53;2.28;;;;;;;;;;10546321;28;20473;-74
2023/12/31 19:18:16;;;;;;;2.88;1.42;;;;;;;;;;10545856;28;20133;-75
2023/12/31 19:23:21;;;;;;;7.60;3.03;;;;;;;;;;10550065;28;20048;-74
2023/12/31 19:28:24;;;;;;;3.78;1.33;;;;;;;;;;10556675;28;20042;-75
2023/12/31 19:33:27;;;;;;;4.28;2.05;;;;;;;;;;10553583;27;20047;-75
2023/12/31 19:38:31;;;;;;;7.32;2.95;;;;;;;;;;10549171;28;20525;-75
2023/12/31 19:43:36;;;;;;;3.25;1.35;;;;;;;;;;10550043;27;20043;-75
2023/12/31 19:48:59;;;;;;;5.40;2.67;;;;;;;;;;10552821;27;20123;-74
2023/12/31 19:54:04;;;;;;;2.92;1.63;;;;;;;;;;10543383;27;20051;-74
2023/12/31 19:59:08;;;;;;;8.23;2.72;;;;;;;;;;10545360;28;20431;-74
2023/12/31 20:04:11;;;;;;;4.30;2.15;;;;;;;;;;10550032;27;20559;-74
2023/12/31 20:09:15;;;;;;;10.00;3.72;;;;;;;;;;10549302;28;20492;-74
2023/12/31 20:14:17;;;;;;;32.85;16.83;;;;;;;;;;10547322;27;20343;-74
2023/12/31 20:19:20;;;;;;;12.40;5.18;;;;;;;;;;10548595;28;20042;-76
2023/12/31 20:24:25;;;;;;;6.20;2.30;;;;;;;;;;10540026;28;20044;-75
2023/12/31 20:29:28;;;;;;;13.75;7.40;;;;;;;;;;10540865;28;20097;-74
2023/12/31 20:34:31;;;;;;;8.97;3.37;;;;;;;;;;10553800;28;20043;-75
2023/12/31 20:39:35;;;;;;;11.82;5.07;;;;;;;;;;10549942;28;20031;-75
2023/12/31 20:44:38;;;;;;;13.45;4.40;;;;;;;;;;10542892;28;20438;-74
2023/12/31 20:49:42;;;;;;;8.45;3.72;;;;;;;;;;10552185;28;20034;-76
2023/12/31 20:54:46;;;;;;;9.27;4.55;;;;;;;;;;10551573;28;20692;-74
2023/12/31 20:59:49;;;;;;;10.05;3.88;;;;;;;;;;10551876;28;20130;-75
2023/12/31 21:04:52;;;;;;;7.28;3.13;;;;;;;;;;10556566;28;20032;-76
2023/12/31 21:09:57;;;;;;;16.10;5.20;;;;;;;;;;10558785;28;20038;-75
2023/12/31 21:15:00;;;;;;;3.78;1.75;;;;;;;;;;10555143;27;20478;-76
2023/12/31 21:20:03;;;;;;;8.90;3.10;;;;;;;;;;10553813;28;20454;-75
2023/12/31 21:25:07;;;;;;;12.25;4.00;;;;;;;;;;10552921;28;20051;-75
2023/12/31 21:30:11;;;;;;;6.18;2.80;;;;;;;;;;10557287;27;20621;-75
2023/12/31 21:35:14;;;;;;;7.57;3.15;;;;;;;;;;10539633;28;20066;-74
2023/12/31 21:40:19;;;;;;;6.20;3.05;;;;;;;;;;10546144;27;20040;-75
2023/12/31 21:45:21;;;;;;;;;;;;;;;;;;10558841;27;20062;-74
2023/12/31 21:50:24;;;;;;;10.45;4.25;;;;;;;;;;10554850;28;20018;-75
2023/12/31 21:55:28;;;;;;;18.10;5.18;;;;;;;;;;10551615;28;20272;-75
2023/12/31 22:00:51;;;;;;;3.08;1.90;;;;;;;;;;10558016;27;20044;-75
2023/12/31 22:05:55;;;;;;;9.90;3.92;;;;;;;;;;10554218;27;20625;-75
2023/12/31 22:10:59;;;;;;;7.40;3.83;;;;;;;;;;10556316;28;20035;-74
2023/12/31 22:16:02;;;;;;;8.35;3.05;;;;;;;;;;10551066;27;20059;-76
2023/12/31 22:21:05;;;;;;;12.15;4.75;;;;;;;;;;10552065;28;20048;-75
2023/12/31 22:26:09;;;;;;;20.65;7.60;;;;;;;;;;10545444;28;20166;-76
2023/12/31 22:31:12;;;;;;;11.90;4.22;;;;;;;;;;10546894;27;21592;-75
2023/12/31 22:36:15;;;;;;;17.35;6.88;;;;;;;;;;10554574;27;20050;-75
2023/12/31 22:41:19;;;;;;;17.90;6.20;;;;;;;;;;10549628;28;20047;-76
2023/12/31 22:46:27;;;;;;;18.02;6.85;;;;;;;;;;10550698;27;20508;-75
2023/12/31 22:51:29;;;;;;;16.55;7.38;;;;;;;;;;10549669;27;20477;-76
2023/12/31 22:56:33;;;;;;;28.55;11.65;;;;;;;;;;10547688;27;20131;-75
2023/12/31 23:01:36;;;;;;;24.85;10.63;;;;;;;;;;10537409;27;20176;-75
2023/12/31 23:06:39;;;;;;;202.93;94.53;;;;;;;;;;10552702;28;20056;-74
2023/12/31 23:11:43;;;;;;;139.40;72.13;;;;;;;;;;10549085;27;20508;-75
2023/12/31 23:16:45;;;;;;;203.40;89.78;;;;;;;;;;10551336;27;20035;-76
2023/12/31 23:21:48;;;;;;;230.00;117.03;;;;;;;;;;10543169;27;20139;-75
2023/12/31 23:26:52;;;;;;;196.75;93.18;;;;;;;;;;10556160;28;20047;-75
2023/12/31 23:31:54;;;;;;;180.23;91.28;;;;;;;;;;10552120;27;20036;-76
2023/12/31 23:36:57;;;;;;;162.90;72.95;;;;;;;;;;10550273;27;20071;-76
2023/12/31 23:42:09;;;;;;;70.18;31.52;;;;;;;;;;10552515;27;20040;-76
2023/12/31 23:47:12;;;;;;;62.90;25.90;;;;;;;;;;10544572;28;20052;-75
2023/12/31 23:52:14;;;;;;;157.98;69.45;;;;;;;;;;10552152;27;20032;-75
2023/12/31 23:57:18;;;;;;;88.07;37.33;;;;;;;;;;10552502;28;20099;-75
